Time;durP1;ratioP1;P1;durP2;ratioP2;P2;SDS_P1;SDS_P2;PMS_P1;PMS_P2;Temp;Humidity;BMP_temperature;BMP_pressure;BME280_temperature;BME280_humidity;BME280_pressure;Samples;Min_cycle;Max_cycle;Signal;HPM_P1;HPM_P2
2022/03/08 00:01:15;;;;;;;4.10;3.08;;;1.70;99.90;;;;;;5051246;28;20130;-60
2022/03/08 00:03:42;;;;;;;4.20;3.60;;;1.70;99.90;;;;;;5035056;28;20557;-60
2022/03/08 00:06:10;;;;;;;4.53;3.53;;;1.70;99.90;;;;;;5034132;28;20072;-60
2022/03/08 00:08:40;;;;;;;3.38;2.92;;;1.70;99.90;;;;;;5035060;28;20075;-60
2022/03/08 00:11:07;;;;;;;3.97;3.15;;;1.60;99.90;;;;;;5051381;28;20063;-60
2022/03/08 00:13:34;;;;;;;4.90;3.75;;;1.70;99.90;;;;;;5055223;28;20147;-60
2022/03/08 00:16:01;;;;;;;3.70;2.88;;;1.60;99.90;;;;;;5057649;28;20132;-60
2022/03/08 00:18:29;;;;;;;4.72;3.55;;;1.60;99.90;;;;;;5035792;28;20048;-60
2022/03/08 00:20:55;;;;;;;4.00;3.50;;;1.60;99.90;;;;;;5051569;28;20144;-60
2022/03/08 00:23:22;;;;;;;4.25;3.38;;;1.50;99.90;;;;;;5034924;28;20610;-60
2022/03/08 00:25:51;;;;;;;3.92;3.25;;;1.50;99.90;;;;;;5023832;28;20080;-60
2022/03/08 00:28:18;;;;;;;4.78;3.22;;;1.50;99.90;;;;;;5059095;28;20079;-60
2022/03/08 00:30:45;;;;;;;4.47;3.25;;;1.50;99.90;;;;;;5057527;28;20079;-60
2022/03/08 00:33:12;;;;;;;4.53;3.42;;;1.40;99.90;;;;;;5056973;28;20085;-60
2022/03/08 00:35:39;;;;;;;4.15;3.55;;;1.40;99.90;;;;;;5059699;28;20048;-60
2022/03/08 00:38:05;;;;;;;3.50;3.13;;;1.30;99.90;;;;;;5042492;28;20131;-60
2022/03/08 00:40:32;;;;;;;4.18;3.40;;;1.30;99.90;;;;;;5059041;28;20084;-60
2022/03/08 00:42:59;;;;;;;4.72;3.58;;;1.20;99.90;;;;;;5043160;28;20083;-59
2022/03/08 00:45:26;;;;;;;3.95;3.20;;;1.20;99.90;;;;;;5036143;28;20091;-61
2022/03/08 00:47:53;;;;;;;4.95;3.60;;;1.20;99.90;;;;;;5037467;28;20044;-60
2022/03/08 00:50:22;;;;;;;3.97;3.42;;;1.10;99.90;;;;;;5055312;28;20119;-60
2022/03/08 00:52:49;;;;;;;4.05;3.35;;;1.10;99.90;;;;;;5056052;28;20084;-60
2022/03/08 00:55:17;;;;;;;4.63;3.90;;;1.10;99.90;;;;;;5055304;28;20132;-60
2022/03/08 00:57:43;;;;;;;4.55;3.83;;;1.00;99.90;;;;;;5059300;28;20106;-60
2022/03/08 01:00:12;;;;;;;4.13;3.72;;;1.00;99.90;;;;;;5060536;28;20151;-60
2022/03/08 01:02:39;;;;;;;4.40;3.53;;;1.00;99.90;;;;;;5060420;28;20448;-60
2022/03/08 01:05:06;;;;;;;5.05;3.60;;;1.00;99.90;;;;;;5056955;28;20049;-60
2022/03/08 01:07:33;;;;;;;6.72;3.30;;;1.00;99.90;;;;;;5060623;28;20521;-61
2022/03/08 01:09:59;;;;;;;4.40;3.40;;;1.00;99.90;;;;;;5043758;28;20238;-60
2022/03/08 01:12:26;;;;;;;4.93;4.18;;;1.00;99.90;;;;;;5062037;28;20044;-59
2022/03/08 01:14:53;;;;;;;4.50;3.55;;;1.00;99.90;;;;;;5061466;28;20131;-60
2022/03/08 01:17:20;;;;;;;5.82;4.03;;;1.00;99.90;;;;;;5062899;28;20498;-60
2022/03/08 01:19:47;;;;;;;4.35;3.55;;;0.90;99.90;;;;;;5044031;28;20124;-60
2022/03/08 01:22:13;;;;;;;5.00;3.58;;;0.90;99.90;;;;;;5061472;28;20135;-60
2022/03/08 01:24:40;;;;;;;4.57;3.83;;;0.90;99.90;;;;;;5039291;28;20135;-59
2022/03/08 01:27:07;;;;;;;4.97;3.83;;;0.90;99.90;;;;;;5054244;28;20081;-60
2022/03/08 01:29:34;;;;;;;7.50;4.30;;;0.90;99.90;;;;;;5054742;28;20484;-59
2022/03/08 01:32:00;;;;;;;6.10;4.38;;;0.90;99.90;;;;;;5053104;28;20065;-60
2022/03/08 01:34:27;;;;;;;5.50;4.03;;;0.90;99.90;;;;;;5059375;28;20468;-60
2022/03/08 01:36:55;;;;;;;6.72;4.28;;;0.90;99.90;;;;;;5061205;28;20080;-60
2022/03/08 01:39:22;;;;;;;5.30;4.65;;;0.90;99.90;;;;;;5043759;28;20072;-62
2022/03/08 01:41:49;;;;;;;5.15;4.15;;;0.90;99.90;;;;;;5057149;28;20090;-60
2022/03/08 01:44:17;;;;;;;5.63;4.65;;;0.90;99.90;;;;;;5060128;28;20586;-60
2022/03/08 01:46:44;;;;;;;6.32;4.40;;;0.90;99.90;;;;;;5019449;28;20044;-61
2022/03/08 01:49:11;;;;;;;5.32;4.43;;;0.80;99.90;;;;;;5061366;28;20116;-60
2022/03/08 01:51:39;;;;;;;5.32;4.07;;;0.80;99.90;;;;;;5061272;28;20084;-60
2022/03/08 01:54:06;;;;;;;6.00;4.35;;;0.80;99.90;;;;;;5046174;28;20037;-59
2022/03/08 01:56:33;;;;;;;4.72;3.75;;;0.80;99.90;;;;;;5056796;28;20064;-60
2022/03/08 01:59:01;;;;;;;4.90;3.92;;;0.70;99.90;;;;;;5059188;28;20045;-60
2022/03/08 02:01:27;;;;;;;5.45;4.57;;;0.70;99.90;;;;;;5052851;28;20507;-60
2022/03/08 02:03:54;;;;;;;6.35;4.88;;;0.70;99.90;;;;;;5053840;28;20080;-60
2022/03/08 02:06:21;;;;;;;5.82;4.50;;;0.70;99.90;;;;;;5054163;28;20076;-60
2022/03/08 02:08:48;;;;;;;6.60;4.60;;;0.70;99.90;;;;;;5054685;28;20407;-60
2022/03/08 02:11:15;;;;;;;6.30;5.00;;;0.70;99.90;;;;;;5036224;28;20127;-60
2022/03/08 02:13:43;;;;;;;6.18;4.85;;;0.70;99.90;;;;;;5056829;28;20097;-60
2022/03/08 02:16:10;;;;;;;5.80;4.40;;;0.70;99.90;;;;;;5060175;28;20048;-61
2022/03/08 02:18:36;;;;;;;5.50;4.20;;;0.70;99.90;;;;;;5039677;28;20076;-60
2022/03/08 02:21:07;;;;;;;6.43;5.05;;;0.70;99.90;;;;;;5056625;28;20341;-60
2022/03/08 02:23:34;;;;;;;8.02;5.80;;;0.70;99.90;;;;;;5041034;28;20127;-60
2022/03/08 02:26:01;;;;;;;5.53;4.18;;;0.70;99.90;;;;;;5041541;28;20144;-60
2022/03/08 02:28:29;;;;;;;6.30;4.88;;;0.60;99.90;;;;;;5060606;28;20045;-59
2022/03/08 02:30:56;;;;;;;6.47;5.10;;;0.60;99.90;;;;;;5042906;28;20071;-60
2022/03/08 02:33:23;;;;;;;5.88;4.70;;;0.60;99.90;;;;;;5060583;28;20040;-60
2022/03/08 02:35:49;;;;;;;6.68;4.75;;;0.60;99.90;;;;;;5058111;28;20140;-60
2022/03/08 02:38:16;;;;;;;8.00;5.97;;;0.60;99.90;;;;;;5053637;28;20144;-60
2022/03/08 02:40:43;;;;;;;7.40;5.70;;;0.60;99.90;;;;;;5054340;28;20480;-60
2022/03/08 02:43:11;;;;;;;7.35;5.97;;;0.60;99.90;;;;;;5054854;28;20132;-60
2022/03/08 02:45:37;;;;;;;6.57;5.78;;;0.60;99.90;;;;;;5035447;28;20080;-61
2022/03/08 02:48:04;;;;;;;8.25;6.53;;;0.60;99.90;;;;;;5057840;28;20114;-60
2022/03/08 02:50:31;;;;;;;6.82;5.63;;;0.70;99.90;;;;;;5058475;28;20080;-61
2022/03/08 02:52:58;;;;;;;8.00;5.97;;;0.60;99.90;;;;;;5060446;28;20072;-61
2022/03/08 02:55:26;;;;;;;8.48;6.30;;;0.60;99.90;;;;;;5059024;28;20124;-60
2022/03/08 02:57:53;;;;;;;7.63;6.22;;;0.60;99.90;;;;;;5053620;28;20049;-61
2022/03/08 03:00:21;;;;;;;9.00;6.82;;;0.70;99.90;;;;;;5052661;28;20098;-60
2022/03/08 03:02:47;;;;;;;9.77;7.18;;;0.70;99.90;;;;;;5056619;28;20139;-61
2022/03/08 03:05:15;;;;;;;7.50;6.32;;;0.70;99.90;;;;;;5057727;28;20051;-60
2022/03/08 03:07:42;;;;;;;7.57;6.07;;;0.70;99.90;;;;;;5054057;28;20080;-58
2022/03/08 03:10:11;;;;;;;8.45;6.22;;;0.70;99.90;;;;;;5059156;28;20095;-60
2022/03/08 03:12:38;;;;;;;9.15;5.68;;;0.70;99.90;;;;;;5059290;28;20160;-61
2022/03/08 03:15:06;;;;;;;8.20;6.32;;;0.60;99.90;;;;;;5057500;28;20124;-60
2022/03/08 03:17:33;;;;;;;7.30;6.20;;;0.60;99.90;;;;;;5058957;28;20080;-60
2022/03/08 03:20:00;;;;;;;6.40;5.40;;;0.60;99.90;;;;;;5057828;28;20076;-60
2022/03/08 03:22:27;;;;;;;6.72;5.32;;;0.60;99.90;;;;;;5055376;28;20082;-60
2022/03/08 03:24:53;;;;;;;9.05;6.75;;;0.50;99.90;;;;;;5052951;28;20041;-60
2022/03/08 03:27:20;;;;;;;8.63;6.53;;;0.50;99.90;;;;;;5052015;28;20091;-61
2022/03/08 03:29:47;;;;;;;7.68;6.28;;;0.60;99.90;;;;;;5056253;28;20127;-60
2022/03/08 03:32:14;;;;;;;9.18;5.75;;;0.50;99.90;;;;;;5058553;28;20559;-61
2022/03/08 03:34:41;;;;;;;7.72;6.38;;;0.50;99.90;;;;;;5051144;28;20120;-59
2022/03/08 03:37:09;;;;;;;8.93;5.97;;;0.50;99.90;;;;;;5051373;28;20080;-60
2022/03/08 03:39:35;;;;;;;6.90;5.13;;;0.50;99.90;;;;;;5058673;28;20695;-61
2022/03/08 03:42:03;;;;;;;6.55;5.60;;;0.40;99.90;;;;;;5052722;28;20107;-60
2022/03/08 03:44:30;;;;;;;6.53;5.20;;;0.40;99.90;;;;;;5058336;28;20133;-61
2022/03/08 03:46:57;;;;;;;7.10;5.20;;;0.40;99.90;;;;;;5060559;28;20048;-60
2022/03/08 03:49:23;;;;;;;5.90;4.85;;;0.40;99.90;;;;;;5065247;28;20143;-60
2022/03/08 03:51:51;;;;;;;6.35;5.40;;;0.40;99.90;;;;;;5065933;28;20122;-60
2022/03/08 03:54:18;;;;;;;8.45;5.65;;;0.30;99.90;;;;;;5066143;28;20037;-60
2022/03/08 03:56:45;;;;;;;7.03;5.68;;;0.30;99.90;;;;;;5047384;28;20411;-60
2022/03/08 03:59:12;;;;;;;8.55;5.43;;;0.30;99.90;;;;;;5066330;28;20135;-60
2022/03/08 04:01:38;;;;;;;6.93;5.30;;;0.30;99.90;;;;;;5064818;28;20151;-60
2022/03/08 04:04:05;;;;;;;7.32;5.00;;;0.20;99.90;;;;;;5063011;28;20048;-61
2022/03/08 04:06:32;;;;;;;6.78;5.00;;;0.20;99.90;;;;;;5066228;28;20088;-60
2022/03/08 04:09:03;;;;;;;6.13;5.38;;;0.20;99.90;;;;;;5047573;28;20143;-61
2022/03/08 04:11:30;;;;;;;5.85;4.47;;;0.20;99.90;;;;;;5046973;28;20053;-60
2022/03/08 04:13:57;;;;;;;6.38;4.70;;;0.20;99.90;;;;;;5065592;28;20036;-61
2022/03/08 04:16:23;;;;;;;6.50;4.88;;;0.20;99.90;;;;;;5064775;28;20083;-60
2022/03/08 04:18:50;;;;;;;7.38;5.00;;;0.10;99.90;;;;;;5064939;28;20597;-61
2022/03/08 04:21:17;;;;;;;5.93;4.65;;;0.10;99.90;;;;;;5065985;28;20178;-60
2022/03/08 04:23:44;;;;;;;6.35;5.32;;;0.10;99.90;;;;;;5058904;28;20127;-60
2022/03/08 04:26:10;;;;;;;6.85;4.90;;;0.10;99.90;;;;;;5064996;28;20143;-60
2022/03/08 04:28:37;;;;;;;7.45;5.13;;;0.10;99.90;;;;;;5065861;28;20432;-61
2022/03/08 04:31:04;;;;;;;6.80;4.88;;;0.00;99.90;;;;;;5063913;28;20102;-60
2022/03/08 04:33:31;;;;;;;6.47;4.88;;;0.00;99.90;;;;;;5065021;28;20051;-59
2022/03/08 04:35:58;;;;;;;6.45;5.22;;;0.00;99.90;;;;;;5063406;28;20087;-60
2022/03/08 04:38:25;;;;;;;6.85;4.80;;;0.00;99.90;;;;;;5065828;28;20068;-59
2022/03/08 04:40:52;;;;;;;6.85;5.50;;;0.00;99.90;;;;;;5064728;28;20072;-60
2022/03/08 04:43:18;;;;;;;6.03;4.97;;;0.00;99.90;;;;;;5047302;28;20837;-60
2022/03/08 04:45:45;;;;;;;7.22;5.10;;;0.00;99.90;;;;;;5063837;28;20148;-60
2022/03/08 04:48:12;;;;;;;8.02;6.00;;;-0.10;99.90;;;;;;5048039;28;20135;-61
2022/03/08 04:50:40;;;;;;;8.27;5.38;;;0.00;99.90;;;;;;5061838;28;20493;-60
2022/03/08 04:53:06;;;;;;;7.03;5.80;;;0.00;99.90;;;;;;5065426;28;20055;-60
2022/03/08 04:55:33;;;;;;;8.27;6.22;;;0.00;99.90;;;;;;5060235;28;20095;-60
2022/03/08 04:58:00;;;;;;;7.40;5.75;;;0.00;99.90;;;;;;5055924;28;20531;-60
2022/03/08 05:00:27;;;;;;;8.40;5.97;;;0.00;99.90;;;;;;5060499;28;20076;-61
2022/03/08 05:02:53;;;;;;;8.80;6.97;;;0.10;99.90;;;;;;5058198;28;20123;-59
2022/03/08 05:05:20;;;;;;;7.28;5.78;;;0.10;99.90;;;;;;5052719;28;20079;-59
2022/03/08 05:07:47;;;;;;;9.27;7.53;;;0.10;99.90;;;;;;5065713;28;20127;-60
2022/03/08 05:10:14;;;;;;;9.02;6.93;;;0.10;99.90;;;;;;5065195;28;20072;-60
2022/03/08 05:12:41;;;;;;;8.73;6.50;;;0.10;99.90;;;;;;5064513;28;20641;-59
2022/03/08 05:15:08;;;;;;;7.95;6.72;;;0.10;99.90;;;;;;5063684;28;20425;-60
2022/03/08 05:17:35;;;;;;;9.48;7.38;;;0.20;99.90;;;;;;5065668;28;20476;-60
2022/03/08 05:20:03;;;;;;;9.10;6.68;;;0.20;99.90;;;;;;5064744;28;20076;-60
2022/03/08 05:22:30;;;;;;;7.15;6.18;;;0.20;99.90;;;;;;5069322;28;20672;-60
2022/03/08 05:24:57;;;;;;;8.73;6.55;;;0.20;99.90;;;;;;5067694;28;20135;-60
2022/03/08 05:27:24;;;;;;;8.70;6.07;;;0.30;99.90;;;;;;5066878;28;20103;-60
2022/03/08 05:29:50;;;;;;;10.00;6.93;;;0.30;99.90;;;;;;5067561;28;20135;-60
2022/03/08 05:32:17;;;;;;;8.95;6.28;;;0.30;99.90;;;;;;5067968;28;20040;-60
2022/03/08 05:34:44;;;;;;;8.80;6.13;;;0.30;99.90;;;;;;5067454;28;20483;-61
2022/03/08 05:37:11;;;;;;;7.72;6.18;;;0.20;99.90;;;;;;5050866;28;20052;-60
2022/03/08 05:39:38;;;;;;;8.63;6.85;;;0.20;99.90;;;;;;5068328;28;20132;-60
2022/03/08 05:42:05;;;;;;;8.43;6.25;;;0.30;99.90;;;;;;5067562;28;20132;-60
2022/03/08 05:44:31;;;;;;;8.80;6.45;;;0.30;99.90;;;;;;5068239;28;20155;-59
2022/03/08 05:46:58;;;;;;;9.43;7.07;;;0.40;99.90;;;;;;5051818;28;20453;-60
2022/03/08 05:49:25;;;;;;;9.38;7.25;;;0.40;99.90;;;;;;5054410;28;20567;-59
2022/03/08 05:51:52;;;;;;;8.13;6.50;;;0.50;99.90;;;;;;5038768;28;20276;-60
2022/03/08 05:54:19;;;;;;;7.45;6.53;;;0.50;99.90;;;;;;5065190;28;20876;-60
2022/03/08 05:56:45;;;;;;;9.07;6.70;;;0.50;99.90;;;;;;5059543;28;20088;-60
2022/03/08 05:59:12;;;;;;;8.55;7.00;;;0.50;99.90;;;;;;5036884;28;20875;-60
2022/03/08 06:01:39;;;;;;;7.97;6.30;;;0.50;99.90;;;;;;5064252;28;20473;-60
2022/03/08 06:04:06;;;;;;;9.18;6.72;;;0.50;99.90;;;;;;5062458;28;20446;-60
2022/03/08 06:06:33;;;;;;;8.13;6.30;;;0.60;99.90;;;;;;5063754;28;20052;-62
2022/03/08 06:09:00;;;;;;;9.65;7.22;;;0.70;99.90;;;;;;5055299;28;20084;-60
2022/03/08 06:11:27;;;;;;;10.02;7.70;;;0.70;99.90;;;;;;5038785;28;20587;-60
2022/03/08 06:13:53;;;;;;;8.70;7.13;;;0.70;99.90;;;;;;5058116;28;20071;-60
2022/03/08 06:16:20;;;;;;;10.05;8.45;;;0.80;99.90;;;;;;5057961;28;20491;-60
2022/03/08 06:18:47;;;;;;;9.40;7.93;;;0.90;99.90;;;;;;5054874;28;20053;-61
2022/03/08 06:21:13;;;;;;;10.60;8.02;;;0.90;99.90;;;;;;5055326;28;20132;-60
2022/03/08 06:23:40;;;;;;;9.38;8.02;;;0.90;99.90;;;;;;5054875;28;20462;-61
2022/03/08 06:26:08;;;;;;;11.65;8.70;;;0.90;99.90;;;;;;5051967;28;20137;-60
2022/03/08 06:28:35;;;;;;;10.57;8.38;;;0.90;99.90;;;;;;5035076;28;20188;-60
2022/03/08 06:31:01;;;;;;;12.05;7.95;;;0.90;99.90;;;;;;5055441;28;20126;-60
2022/03/08 06:33:28;;;;;;;10.20;7.97;;;0.90;99.90;;;;;;5055587;28;20044;-60
2022/03/08 06:35:55;;;;;;;9.77;7.90;;;1.00;99.90;;;;;;5057236;28;20121;-60
2022/03/08 06:38:23;;;;;;;9.07;7.55;;;1.00;99.90;;;;;;5062088;28;20076;-60
2022/03/08 06:40:49;;;;;;;10.25;8.50;;;1.00;99.90;;;;;;5054534;28;20310;-60
2022/03/08 06:43:16;;;;;;;9.65;8.20;;;1.00;99.90;;;;;;5053262;28;20075;-59
2022/03/08 06:45:43;;;;;;;9.85;8.40;;;1.10;99.90;;;;;;5055682;28;20123;-59
2022/03/08 06:48:11;;;;;;;9.00;7.80;;;1.10;99.90;;;;;;5049067;28;20072;-59
2022/03/08 06:50:38;;;;;;;13.48;8.60;;;1.10;99.90;;;;;;5051925;28;20464;-60
2022/03/08 06:53:05;;;;;;;10.57;8.23;;;1.20;99.90;;;;;;5053210;28;20072;-60
2022/03/08 06:55:32;;;;;;;11.88;8.95;;;1.20;99.90;;;;;;5052953;28;20098;-60
2022/03/08 06:57:58;;;;;;;13.00;8.93;;;1.20;99.90;;;;;;5050078;28;20091;-60
2022/03/08 07:00:25;;;;;;;10.10;8.13;;;1.30;99.90;;;;;;5056649;28;20131;-60
2022/03/08 07:02:52;;;;;;;9.40;7.65;;;1.30;99.90;;;;;;5053355;28;20136;-60
2022/03/08 07:05:19;;;;;;;9.30;7.93;;;1.30;99.90;;;;;;5054093;28;20072;-60
2022/03/08 07:07:45;;;;;;;12.13;9.60;;;1.40;99.90;;;;;;5040244;28;20664;-61
2022/03/08 07:10:13;;;;;;;10.05;8.75;;;1.40;99.90;;;;;;5052955;28;20448;-61
2022/03/08 07:12:39;;;;;;;9.82;8.82;;;1.50;99.90;;;;;;5041406;28;20127;-61
2022/03/08 07:15:07;;;;;;;12.02;9.25;;;1.50;99.90;;;;;;5055879;28;20096;-61
2022/03/08 07:17:34;;;;;;;9.82;8.73;;;1.60;99.90;;;;;;5057605;28;20212;-61
2022/03/08 07:20:02;;;;;;;10.48;8.73;;;1.60;99.90;;;;;;5051101;28;20052;-61
2022/03/08 07:22:28;;;;;;;10.75;8.07;;;1.60;99.90;;;;;;5029922;28;20125;-61
2022/03/08 07:24:55;;;;;;;10.15;8.18;;;1.60;99.90;;;;;;5061679;28;20056;-61
2022/03/08 07:27:22;;;;;;;10.15;8.23;;;1.70;99.90;;;;;;5078789;28;20143;-61
2022/03/08 07:29:49;;;;;;;9.68;7.65;;;1.70;99.90;;;;;;5061825;28;20488;-61
2022/03/08 07:32:15;;;;;;;11.77;9.00;;;1.80;99.90;;;;;;5057064;28;20136;-60
2022/03/08 07:34:42;;;;;;;11.70;8.82;;;1.80;99.90;;;;;;5057416;28;20588;-61
2022/03/08 07:37:09;;;;;;;9.48;8.00;;;1.80;99.90;;;;;;5058176;28;20119;-61
2022/03/08 07:39:36;;;;;;;9.90;8.40;;;1.90;99.90;;;;;;5053689;28;20132;-60
2022/03/08 07:42:02;;;;;;;11.77;9.07;;;2.00;99.90;;;;;;5058771;28;20080;-60
2022/03/08 07:44:29;;;;;;;10.90;9.43;;;2.00;99.90;;;;;;5051764;28;20602;-60
2022/03/08 07:46:57;;;;;;;10.52;8.77;;;2.10;99.90;;;;;;5053220;28;20497;-60
2022/03/08 07:49:25;;;;;;;10.10;8.45;;;2.20;99.90;;;;;;5052383;28;20046;-61
2022/03/08 07:51:52;;;;;;;12.32;9.27;;;2.20;99.90;;;;;;5043464;28;20129;-61
2022/03/08 07:54:19;;;;;;;10.48;8.18;;;2.30;99.90;;;;;;5050733;28;20570;-61
2022/03/08 07:56:45;;;;;;;11.32;8.50;;;2.30;99.90;;;;;;5047855;28;20079;-61
2022/03/08 07:59:12;;;;;;;11.65;9.35;;;2.40;99.90;;;;;;5035623;28;20418;-61
2022/03/08 08:01:39;;;;;;;10.07;8.88;;;2.40;99.90;;;;;;5038056;28;20515;-61
2022/03/08 08:04:06;;;;;;;10.60;8.77;;;2.50;99.90;;;;;;5057474;28;20052;-61
2022/03/08 08:06:33;;;;;;;9.45;8.35;;;2.50;99.90;;;;;;5055436;28;20648;-61
2022/03/08 08:09:00;;;;;;;10.15;8.52;;;2.60;99.90;;;;;;5052267;28;20362;-61
2022/03/08 08:11:26;;;;;;;13.40;10.20;;;2.60;99.90;;;;;;5055951;28;20356;-61
2022/03/08 08:13:53;;;;;;;13.02;10.27;;;2.70;99.90;;;;;;5027433;28;20053;-60
2022/03/08 08:16:20;;;;;;;12.70;10.23;;;2.80;99.90;;;;;;5057662;28;20167;-61
2022/03/08 08:18:47;;;;;;;14.85;10.93;;;2.90;99.90;;;;;;5051018;28;20048;-61
2022/03/08 08:21:14;;;;;;;14.88;11.55;;;3.00;99.90;;;;;;5040536;28;20083;-60
2022/03/08 08:23:40;;;;;;;13.18;11.13;;;3.10;99.90;;;;;;5059623;28;20098;-61
2022/03/08 08:26:07;;;;;;;13.40;10.50;;;3.10;99.90;;;;;;5057738;28;20079;-61
2022/03/08 08:28:34;;;;;;;14.13;11.57;;;3.20;99.90;;;;;;5027554;28;20487;-61
2022/03/08 08:31:01;;;;;;;12.77;9.82;;;3.20;99.90;;;;;;5056050;28;20091;-61
2022/03/08 08:33:28;;;;;;;12.85;9.98;;;3.30;99.90;;;;;;5057783;28;20170;-62
2022/03/08 08:35:56;;;;;;;11.88;10.55;;;3.40;99.90;;;;;;5052395;28;20084;-61
2022/03/08 08:38:23;;;;;;;11.55;10.18;;;3.50;99.90;;;;;;5052582;28;20475;-60
2022/03/08 08:40:49;;;;;;;12.70;10.43;;;3.50;99.90;;;;;;5040075;28;20135;-61
2022/03/08 08:43:16;;;;;;;13.82;11.50;;;3.60;99.90;;;;;;5053977;28;20137;-59
2022/03/08 08:45:43;;;;;;;12.80;10.65;;;3.70;99.90;;;;;;5040646;28;20212;-61
2022/03/08 08:48:10;;;;;;;13.43;11.27;;;3.70;99.90;;;;;;5039992;28;20089;-61
2022/03/08 08:50:36;;;;;;;13.65;11.07;;;3.80;99.90;;;;;;5059365;28;20086;-59
2022/03/08 08:53:04;;;;;;;13.48;10.65;;;3.90;99.90;;;;;;5056785;28;20105;-60
2022/03/08 08:55:31;;;;;;;14.38;10.95;;;3.90;99.90;;;;;;5052047;28;20530;-60
2022/03/08 08:57:58;;;;;;;13.15;10.35;;;4.00;99.90;;;;;;5052692;28;20377;-60
2022/03/08 09:00:24;;;;;;;12.55;9.77;;;4.10;99.90;;;;;;5055724;28;20448;-59
2022/03/08 09:02:52;;;;;;;12.77;10.80;;;4.20;99.90;;;;;;5054712;28;20056;-59
2022/03/08 09:05:19;;;;;;;13.93;11.50;;;4.20;99.90;;;;;;5053441;28;20045;-60
2022/03/08 09:07:46;;;;;;;12.88;10.27;;;4.20;99.90;;;;;;5042846;28;20088;-59
2022/03/08 09:10:14;;;;;;;12.40;10.75;;;4.30;99.90;;;;;;5046913;28;20095;-60
2022/03/08 09:12:41;;;;;;;13.45;10.68;;;4.40;99.90;;;;;;5028149;28;20323;-59
2022/03/08 09:15:08;;;;;;;17.25;12.48;;;4.40;99.90;;;;;;5061900;28;20048;-60
2022/03/08 09:17:37;;;;;;;14.55;12.45;;;4.50;99.90;;;;;;5063320;28;20040;-58
2022/03/08 09:20:05;;;;;;;14.63;11.73;;;4.60;99.90;;;;;;5044775;28;20503;-60
2022/03/08 09:22:32;;;;;;;12.80;10.98;;;4.60;99.90;;;;;;5051738;28;20080;-60
2022/03/08 09:24:59;;;;;;;14.10;11.88;;;4.70;99.90;;;;;;5063135;28;20117;-59
2022/03/08 09:27:25;;;;;;;13.68;11.07;;;4.80;99.90;;;;;;5050274;28;20052;-60
2022/03/08 09:29:52;;;;;;;12.88;11.07;;;4.90;99.90;;;;;;5026419;28;20096;-59
2022/03/08 09:32:19;;;;;;;14.07;11.30;;;4.90;99.90;;;;;;5045805;28;20729;-60
2022/03/08 09:34:46;;;;;;;14.45;12.13;;;5.10;99.90;;;;;;5045247;28;20352;-60
2022/03/08 09:37:12;;;;;;;11.70;10.05;;;5.20;99.90;;;;;;5061391;28;20254;-59
2022/03/08 09:39:39;;;;;;;12.30;10.23;;;5.20;99.90;;;;;;5058109;28;20725;-60
2022/03/08 09:42:06;;;;;;;13.80;11.82;;;5.30;99.90;;;;;;5048999;28;20721;-60
2022/03/08 09:44:33;;;;;;;13.65;11.73;;;5.50;99.90;;;;;;5060645;28;20311;-59
2022/03/08 09:47:00;;;;;;;13.75;12.05;;;5.50;99.90;;;;;;5061065;28;20381;-60
2022/03/08 09:49:27;;;;;;;15.07;12.30;;;5.60;99.90;;;;;;5059000;28;20074;-60
2022/03/08 09:51:53;;;;;;;11.95;10.23;;;5.70;99.90;;;;;;5035865;28;20071;-60
2022/03/08 09:54:20;;;;;;;12.75;10.45;;;5.80;99.90;;;;;;5060561;28;20082;-59
2022/03/08 09:56:47;;;;;;;11.68;10.48;;;5.90;99.90;;;;;;5050281;28;20081;-60
2022/03/08 09:59:17;;;;;;;12.00;10.40;;;6.00;99.90;;;;;;5050989;28;20072;-59
2022/03/08 10:01:45;;;;;;;11.70;10.50;;;6.10;99.90;;;;;;5055254;28;20154;-60
2022/03/08 10:04:16;;;;;;;13.05;11.02;;;6.20;99.90;;;;;;5057983;28;20053;-59
2022/03/08 10:07:11;;;;;;;10.00;8.98;;;6.30;99.90;;;;;;5058203;28;20055;-60
2022/03/08 10:09:38;;;;;;;11.85;9.60;;;6.50;99.90;;;;;;5056130;28;20060;-60
2022/03/08 10:12:15;;;;;;;13.48;11.60;;;6.60;99.90;;;;;;5043743;28;20112;-60
2022/03/08 10:14:42;;;;;;;11.68;10.48;;;6.60;99.90;;;;;;5061375;28;20143;-59
2022/03/08 10:17:10;;;;;;;11.68;9.30;;;6.70;99.90;;;;;;5031814;28;20106;-60
2022/03/08 10:19:44;;;;;;;11.60;10.38;;;6.80;99.90;;;;;;5044549;28;20088;-60
2022/03/08 10:22:32;;;;;;;13.13;11.52;;;6.80;99.90;;;;;;5040804;28;20131;-62
2022/03/08 10:25:29;;;;;;;14.85;13.25;;;6.90;99.90;;;;;;5050499;28;20075;-60
2022/03/08 10:27:58;;;;;;;14.65;11.98;;;7.00;99.90;;;;;;5038836;28;20483;-61
2022/03/08 10:30:43;;;;;;;12.05;10.80;;;7.10;99.90;;;;;;5058115;28;20491;-59
2022/03/08 10:33:19;;;;;;;13.38;10.50;;;7.20;99.90;;;;;;5059652;28;20440;-60
2022/03/08 10:35:48;;;;;;;11.73;10.50;;;7.20;99.90;;;;;;5042116;28;20135;-59
2022/03/08 10:38:14;;;;;;;12.68;10.93;;;7.30;99.90;;;;;;5041523;28;20677;-59
2022/03/08 10:40:42;;;;;;;12.45;11.07;;;7.50;99.90;;;;;;5056785;28;20078;-59
2022/03/08 10:43:13;;;;;;;11.88;10.27;;;7.50;99.90;;;;;;5048457;28;20161;-59
2022/03/08 10:45:48;;;;;;;11.77;10.32;;;7.50;99.90;;;;;;5053437;28;20127;-59
2022/03/08 10:48:17;;;;;;;14.32;12.55;;;7.60;99.90;;;;;;5025443;28;20053;-59
2022/03/08 10:50:44;;;;;;;15.55;11.77;;;7.60;99.90;;;;;;5055875;28;20052;-59
2022/03/08 10:53:13;;;;;;;12.27;10.98;;;7.70;99.90;;;;;;5031564;28;20084;-59
2022/03/08 10:55:48;;;;;;;14.68;12.60;;;7.80;99.90;;;;;;5049134;28;20080;-60
2022/03/08 10:58:15;;;;;;;12.52;10.43;;;7.80;99.90;;;;;;5061212;28;20537;-60
2022/03/08 11:01:01;;;;;;;12.98;11.65;;;7.90;99.90;;;;;;5034923;28;20083;-60
2022/03/08 11:03:29;;;;;;;14.65;12.65;;;8.00;99.90;;;;;;5061244;28;20087;-60
2022/03/08 11:05:59;;;;;;;11.93;10.73;;;8.10;99.90;;;;;;5060415;28;20055;-59
2022/03/08 11:08:27;;;;;;;11.00;9.75;;;8.20;99.90;;;;;;5051782;28;20167;-59
2022/03/08 11:10:55;;;;;;;12.90;11.30;;;8.30;99.90;;;;;;5057629;28;20059;-59
2022/03/08 11:13:22;;;;;;;12.52;11.23;;;8.30;99.90;;;;;;5050737;28;20052;-59
2022/03/08 11:15:48;;;;;;;12.60;10.43;;;8.40;99.90;;;;;;5059696;28;20056;-60
2022/03/08 11:18:16;;;;;;;13.38;11.98;;;8.60;99.90;;;;;;5025162;28;20103;-59
2022/03/08 11:20:45;;;;;;;14.93;10.82;;;8.70;99.90;;;;;;5041984;28;20135;-60
2022/03/08 11:23:12;;;;;;;11.80;10.57;;;8.80;99.90;;;;;;5048653;28;20110;-61
2022/03/08 11:25:44;;;;;;;10.32;9.05;;;8.90;99.90;;;;;;5040401;28;20535;-59
2022/03/08 11:28:18;;;;;;;13.18;11.30;;;9.00;99.90;;;;;;5040389;28;20053;-59
2022/03/08 11:30:56;;;;;;;12.45;11.05;;;9.20;99.90;;;;;;5046930;28;20052;-59
2022/03/08 11:33:41;;;;;;;13.38;11.30;;;9.30;99.90;;;;;;5055830;28;20051;-59
2022/03/08 11:36:30;;;;;;;14.15;11.93;;;9.50;99.90;;;;;;5051001;28;20156;-61
2022/03/08 11:39:09;;;;;;;12.73;11.48;;;9.70;99.90;;;;;;5043357;28;20137;-61
2022/03/08 11:41:37;;;;;;;11.27;9.95;;;10.10;99.90;;;;;;5048277;28;20315;-61
2022/03/08 11:44:04;;;;;;;12.55;9.88;;;10.30;99.90;;;;;;5008671;28;20892;-59
2022/03/08 11:46:35;;;;;;;11.57;10.27;;;10.70;99.90;;;;;;5045984;28;20545;-59
2022/03/08 11:49:04;;;;;;;11.57;10.30;;;10.90;99.90;;;;;;5038060;28;20411;-59
2022/03/08 11:51:31;;;;;;;11.10;9.95;;;11.00;99.90;;;;;;5051372;28;20135;-61
2022/03/08 11:54:05;;;;;;;12.18;10.98;;;11.00;99.90;;;;;;5059682;28;20595;-59
2022/03/08 11:56:48;;;;;;;11.57;10.48;;;11.10;99.90;;;;;;5047235;28;20284;-60
2022/03/08 11:59:14;;;;;;;13.82;12.30;;;11.30;99.90;;;;;;5047499;28;20492;-60
2022/03/08 12:01:41;;;;;;;12.07;10.88;;;11.40;99.90;;;;;;5039294;28;20087;-60
2022/03/08 12:04:10;;;;;;;11.80;10.60;;;11.60;99.90;;;;;;5029059;28;20512;-60
2022/03/08 12:06:38;;;;;;;12.68;11.43;;;11.90;99.90;;;;;;5049887;28;20045;-60
2022/03/08 12:09:15;;;;;;;13.43;12.13;;;12.00;99.90;;;;;;5056308;28;20084;-60
2022/03/08 12:11:58;;;;;;;11.70;10.55;;;12.20;99.90;;;;;;5054702;28;20064;-60
2022/03/08 12:14:45;;;;;;;;;;;12.40;99.90;;;;;;5057204;28;20495;-60
2022/03/08 12:17:17;;;;;;;12.45;11.15;;;12.50;99.90;;;;;;5049410;28;19956;-60
2022/03/08 12:19:46;;;;;;;14.20;11.98;;;12.60;99.90;;;;;;5048612;28;20465;-60
2022/03/08 12:22:18;;;;;;;13.15;11.32;;;12.70;99.90;;;;;;5046414;28;20052;-59
2022/03/08 12:24:49;;;;;;;13.02;11.73;;;12.90;99.90;;;;;;5059507;28;20478;-61
2022/03/08 12:27:17;;;;;;;11.75;10.65;;;13.10;99.90;;;;;;5046824;28;20143;-59
2022/03/08 12:30:05;;;;;;;12.27;10.73;;;13.30;99.90;;;;;;5029134;28;20049;-60
2022/03/08 12:32:33;;;;;;;10.80;9.70;;;13.50;99.90;;;;;;5059373;28;20166;-60
2022/03/08 12:35:03;;;;;;;11.68;10.48;;;13.70;99.90;;;;;;5055085;28;20049;-60
2022/03/08 12:37:51;;;;;;;12.82;11.18;;;13.80;99.90;;;;;;5047251;28;20048;-60
2022/03/08 12:40:18;;;;;;;10.30;9.30;;;13.80;99.90;;;;;;5048799;28;20374;-60
2022/03/08 12:42:51;;;;;;;10.95;9.88;;;14.10;99.90;;;;;;5046642;28;20052;-59
2022/03/08 12:45:19;;;;;;;11.45;10.20;;;14.30;99.90;;;;;;5060648;28;20090;-60
2022/03/08 12:48:13;;;;;;;10.23;9.05;;;14.50;99.80;;;;;;5064052;28;20048;-60
2022/03/08 12:50:45;;;;;;;10.32;9.32;;;14.90;99.70;;;;;;5050718;28;20315;-58
2022/03/08 12:53:19;;;;;;;10.18;9.25;;;15.00;99.30;;;;;;5063851;28;20180;-60